createdAt,value
2023-01-15T00:02:07.662Z,26.58
2023-01-15T00:04:35.254Z,25.52
2023-01-15T00:07:02.769Z,25.73
2023-01-15T00:09:30.257Z,28.05
2023-01-15T00:11:57.709Z,23.98
2023-01-15T00:14:25.152Z,26.60
2023-01-15T00:16:53.513Z,24.80
2023-01-15T00:19:21.007Z,23.17
2023-01-15T00:21:48.488Z,23.90
2023-01-15T00:24:34.398Z,24.30
2023-01-15T00:27:20.476Z,23.40
2023-01-15T00:29:47.977Z,23.83
2023-01-15T00:32:15.458Z,23.00
2023-01-15T00:34:42.975Z,22.65
2023-01-15T00:37:10.533Z,23.75
2023-01-15T00:39:38.008Z,23.73
2023-01-15T00:42:05.450Z,23.38
2023-01-15T00:44:33.915Z,24.85
2023-01-15T00:47:01.566Z,22.23
2023-01-15T00:49:30.084Z,24.30
2023-01-15T00:51:57.751Z,25.75
2023-01-15T00:54:25.189Z,24.58
2023-01-15T00:56:53.976Z,24.65
2023-01-15T00:59:21.580Z,23.45
2023-01-15T01:01:49.181Z,23.95
2023-01-15T01:04:16.921Z,23.67
2023-01-15T01:06:44.583Z,23.92
2023-01-15T01:09:16.314Z,21.80
2023-01-15T01:11:44.140Z,24.15
2023-01-15T01:14:12.540Z,22.60
2023-01-15T01:16:42.177Z,25.60
2023-01-15T01:19:12.814Z,23.58
2023-01-15T01:21:42.381Z,24.95
2023-01-15T01:24:12.353Z,24.40
2023-01-15T01:26:40.324Z,22.13
2023-01-15T01:29:08.055Z,22.25
2023-01-15T01:31:35.496Z,21.42
2023-01-15T01:34:03.009Z,22.48
2023-01-15T01:36:34.360Z,21.83
2023-01-15T01:39:03.137Z,22.73
2023-01-15T01:41:31.147Z,22.67
2023-01-15T01:43:59.645Z,22.90
2023-01-15T01:46:29.377Z,23.35
2023-01-15T01:49:02.781Z,22.38
2023-01-15T01:51:37.537Z,20.60
2023-01-15T01:54:06.766Z,23.35
2023-01-15T01:56:36.085Z,20.85
2023-01-15T01:59:05.641Z,23.20
2023-01-15T02:01:33.751Z,21.67
2023-01-15T02:04:02.158Z,21.38
2023-01-15T02:06:31.278Z,23.05
2023-01-15T02:08:58.780Z,20.83
2023-01-15T02:11:27.083Z,23.27
2023-01-15T02:13:58.023Z,21.83
2023-01-15T02:16:47.940Z,20.13
2023-01-15T02:19:50.238Z,20.45
2023-01-15T02:22:34.545Z,20.92
2023-01-15T02:25:11.087Z,19.77
2023-01-15T02:27:42.775Z,21.80
2023-01-15T02:30:17.765Z,21.40
2023-01-15T02:32:57.181Z,19.50
2023-01-15T02:35:45.913Z,19.48
2023-01-15T02:38:19.622Z,23.38
2023-01-15T02:40:54.217Z,20.48
2023-01-15T02:43:25.307Z,21.60
2023-01-15T02:45:55.356Z,20.48
2023-01-15T02:48:26.760Z,19.58
2023-01-15T02:50:59.311Z,20.25
2023-01-15T02:53:30.415Z,22.27
2023-01-15T02:56:06.845Z,22.73
2023-01-15T02:58:43.890Z,18.73
2023-01-15T03:01:25.190Z,18.88
2023-01-15T03:04:02.823Z,17.92
2023-01-15T03:06:56.167Z,18.08
2023-01-15T03:09:24.698Z,19.70
2023-01-15T03:12:14.905Z,18.35
2023-01-15T03:14:52.186Z,19.25
2023-01-15T03:17:33.218Z,20.77
2023-01-15T03:20:25.972Z,18.25
2023-01-15T03:23:09.239Z,20.25
2023-01-15T03:25:45.865Z,17.95
2023-01-15T03:28:15.763Z,17.23
2023-01-15T03:30:43.625Z,18.25
2023-01-15T03:33:11.836Z,18.95
2023-01-15T03:35:40.001Z,18.17
2023-01-15T03:38:09.716Z,16.80
2023-01-15T03:40:42.363Z,17.20
2023-01-15T03:43:34.410Z,17.88
2023-01-15T03:46:06.882Z,19.10
2023-01-15T03:49:29.881Z,19.83
2023-01-15T03:52:01.833Z,18.05
2023-01-15T03:54:53.680Z,21.20
2023-01-15T03:57:39.034Z,18.10
2023-01-15T04:00:18.213Z,18.95
2023-01-15T04:02:52.963Z,19.05
2023-01-15T04:05:21.160Z,17.90
2023-01-15T04:07:51.892Z,19.05
2023-01-15T04:10:19.494Z,18.17
2023-01-15T04:12:49.439Z,16.55
2023-01-15T04:15:17.348Z,17.95
2023-01-15T04:17:45.076Z,18.50
2023-01-15T04:20:13.052Z,17.35
2023-01-15T04:22:42.852Z,16.63
2023-01-15T04:25:11.044Z,16.25
2023-01-15T04:27:38.738Z,16.92
2023-01-15T04:30:06.884Z,19.17
2023-01-15T04:32:34.418Z,16.75
2023-01-15T04:35:02.081Z,16.92
2023-01-15T04:37:29.570Z,16.33
2023-01-15T04:39:57.348Z,18.42
2023-01-15T04:42:43.488Z,16.40
2023-01-15T04:45:11.036Z,17.45
2023-01-15T04:47:38.558Z,16.05
2023-01-15T04:50:06.461Z,15.73
2023-01-15T04:52:33.944Z,14.85
2023-01-15T04:55:01.419Z,14.88
2023-01-15T04:57:28.966Z,15.82
2023-01-15T04:59:56.465Z,14.18
2023-01-15T05:02:56.372Z,15.50
2023-01-15T05:05:24.092Z,15.43
2023-01-15T05:07:51.650Z,15.57
2023-01-15T05:10:19.369Z,13.85
2023-01-15T05:12:46.977Z,15.25
2023-01-15T05:15:14.557Z,14.25
2023-01-15T05:17:42.228Z,15.45
2023-01-15T05:20:10.636Z,17.15
2023-01-15T05:22:38.351Z,14.80
2023-01-15T05:25:06.360Z,14.55
2023-01-15T05:27:33.916Z,14.55
2023-01-15T05:31:03.771Z,13.88
2023-01-15T05:33:34.191Z,14.20
2023-01-15T05:36:05.954Z,14.45
2023-01-15T05:38:38.419Z,14.77
2023-01-15T05:41:30.303Z,15.73
2023-01-15T05:44:01.249Z,14.20
2023-01-15T05:46:29.119Z,15.10
2023-01-15T05:49:03.708Z,14.55
2023-01-15T05:51:31.687Z,14.45
2023-01-15T05:54:03.977Z,14.13
2023-01-15T05:56:40.624Z,14.48
2023-01-15T05:59:13.095Z,14.95
2023-01-15T06:01:43.287Z,14.82
2023-01-15T06:04:14.266Z,14.70
2023-01-15T06:06:43.330Z,14.20
2023-01-15T06:09:11.157Z,16.75
2023-01-15T06:11:42.193Z,15.48
2023-01-15T06:14:12.009Z,15.07
2023-01-15T06:17:18.897Z,15.02
2023-01-15T06:22:14.092Z,15.32
2023-01-15T06:25:15.967Z,14.88
2023-01-15T06:27:44.667Z,16.77
2023-01-15T06:30:12.598Z,17.38
2023-01-15T06:32:40.101Z,18.80
2023-01-15T06:35:08.234Z,20.17
2023-01-15T06:37:36.030Z,20.50
2023-01-15T06:40:04.031Z,17.70
2023-01-15T06:42:50.697Z,17.65
2023-01-15T06:45:36.631Z,21.38
2023-01-15T06:50:34.190Z,19.67
2023-01-15T06:53:01.860Z,19.02
2023-01-15T06:58:46.618Z,20.27
2023-01-15T07:01:15.600Z,20.27
2023-01-15T07:03:44.308Z,22.05
2023-01-15T07:06:15.096Z,20.25
2023-01-15T07:08:42.763Z,19.50
2023-01-15T07:11:13.853Z,22.90
2023-01-15T07:13:43.857Z,21.92
2023-01-15T07:16:27.097Z,20.73
2023-01-15T07:19:18.919Z,21.58
2023-01-15T07:22:18.141Z,21.70
2023-01-15T07:24:46.848Z,21.23
2023-01-15T07:27:14.505Z,22.67
2023-01-15T07:29:42.180Z,21.27
2023-01-15T07:32:17.650Z,23.40
2023-01-15T07:37:16.767Z,20.67
2023-01-15T07:39:44.424Z,22.40
2023-01-15T07:42:30.552Z,20.48
2023-01-15T07:50:20.289Z,20.33
2023-01-15T07:57:37.319Z,21.27
2023-01-15T08:00:53.210Z,21.00
2023-01-15T08:04:48.430Z,21.58
2023-01-15T08:07:53.355Z,22.95
2023-01-15T08:15:17.576Z,21.00
2023-01-15T08:19:13.187Z,23.05
2023-01-15T08:29:42.238Z,22.13
2023-01-15T08:32:24.845Z,23.30
2023-01-15T08:36:22.310Z,22.13
2023-01-15T08:39:28.910Z,21.85
2023-01-15T08:45:20.341Z,21.70
2023-01-15T08:55:20.966Z,21.85
2023-01-15T08:57:52.000Z,21.98
2023-01-15T09:00:26.672Z,20.27
2023-01-15T09:02:59.074Z,23.70
2023-01-15T09:05:29.249Z,24.67
2023-01-15T09:07:56.915Z,24.13
2023-01-15T09:10:24.792Z,24.40
2023-01-15T09:13:12.638Z,22.80
2023-01-15T09:15:42.522Z,26.50
2023-01-15T09:18:12.718Z,23.95
2023-01-15T09:20:42.606Z,22.73
2023-01-15T09:31:30.195Z,22.33
2023-01-15T09:34:24.391Z,20.33
2023-01-15T09:37:01.646Z,23.33
2023-01-15T09:39:29.385Z,21.58
2023-01-15T09:42:24.571Z,21.40
2023-01-15T09:44:54.851Z,19.92
2023-01-15T09:47:36.771Z,20.40
2023-01-15T09:50:31.018Z,20.40
2023-01-15T09:53:35.081Z,21.98
2023-01-15T09:56:04.634Z,21.55
2023-01-15T09:58:36.433Z,20.27
2023-01-15T10:01:05.097Z,21.88
2023-01-15T10:03:32.764Z,20.88
2023-01-15T10:06:13.193Z,21.60
2023-01-15T10:08:48.541Z,21.52
2023-01-15T10:14:02.020Z,24.27
2023-01-15T10:19:02.670Z,23.45
2023-01-15T10:21:51.775Z,24.08
2023-01-15T10:24:29.300Z,22.42
2023-01-15T10:26:58.668Z,24.42
2023-01-15T10:29:45.739Z,22.98
2023-01-15T10:32:19.304Z,23.30
2023-01-15T10:35:15.183Z,22.67
2023-01-15T10:38:09.765Z,23.02
2023-01-15T10:41:29.171Z,23.95
2023-01-15T10:44:14.221Z,20.65
2023-01-15T10:46:52.819Z,19.50
2023-01-15T10:49:47.794Z,19.65
2023-01-15T10:52:34.940Z,20.98
2023-01-15T10:55:29.392Z,19.60
2023-01-15T10:58:34.233Z,19.88
2023-01-15T11:01:10.743Z,19.40
2023-01-15T11:04:30.041Z,19.50
2023-01-15T11:07:01.475Z,19.63
2023-01-15T11:09:32.535Z,20.55
2023-01-15T11:12:19.651Z,21.77
2023-01-15T11:15:06.042Z,24.85
2023-01-15T11:17:57.174Z,22.52
2023-01-15T11:20:24.735Z,23.27
2023-01-15T11:22:53.522Z,22.50
2023-01-15T11:25:31.781Z,21.38
2023-01-15T11:28:07.381Z,22.15
2023-01-15T11:34:21.694Z,23.20
2023-01-15T11:37:05.569Z,22.65
2023-01-15T11:39:52.313Z,21.65
2023-01-15T11:42:45.275Z,24.67
2023-01-15T11:45:37.571Z,22.90
2023-01-15T11:48:35.322Z,24.13
2023-01-15T11:51:09.458Z,25.80
2023-01-15T11:53:46.371Z,24.75
2023-01-15T11:56:23.728Z,22.88
2023-01-15T11:58:56.299Z,25.15
2023-01-15T12:01:36.264Z,23.90
2023-01-15T12:04:08.099Z,25.55
2023-01-15T12:06:43.801Z,26.80
2023-01-15T12:09:28.052Z,26.92
2023-01-15T12:12:05.376Z,28.38
2023-01-15T12:14:44.362Z,25.40
2023-01-15T12:18:19.170Z,26.17
2023-01-15T12:21:11.582Z,25.30
2023-01-15T12:23:51.255Z,25.80
2023-01-15T12:26:31.309Z,28.40
2023-01-15T12:30:16.679Z,26.33
2023-01-15T12:32:51.277Z,27.08
2023-01-15T12:35:31.254Z,26.38
2023-01-15T12:38:18.436Z,26.15
2023-01-15T12:40:52.357Z,29.43
2023-01-15T12:43:43.898Z,27.45
2023-01-15T12:46:39.290Z,29.23
2023-01-15T12:49:42.786Z,25.70
2023-01-15T12:52:24.368Z,26.35
2023-01-15T12:55:01.883Z,26.98
2023-01-15T12:57:40.049Z,24.55
2023-01-15T13:00:14.293Z,26.30
2023-01-15T13:03:39.681Z,25.80
2023-01-15T13:06:13.041Z,25.55
2023-01-15T13:08:46.535Z,27.25
2023-01-15T13:11:14.180Z,28.90
2023-01-15T13:14:40.865Z,27.08
2023-01-15T13:18:04.013Z,32.05
2023-01-15T13:20:55.407Z,30.48
2023-01-15T13:23:56.714Z,33.78
2023-01-15T13:27:21.353Z,32.38
2023-01-15T13:30:24.208Z,29.83
2023-01-15T13:32:57.246Z,29.52
2023-01-15T13:35:42.074Z,28.67
2023-01-15T13:38:18.444Z,29.77
2023-01-15T13:41:55.295Z,31.88
2023-01-15T13:53:39.115Z,30.67
2023-01-15T14:09:51.527Z,32.83
2023-01-15T14:26:33.803Z,31.13
2023-01-15T14:38:18.733Z,34.75
2023-01-15T14:41:16.451Z,33.40
2023-01-15T14:43:49.924Z,33.95
2023-01-15T14:46:39.995Z,35.30
2023-01-15T14:49:34.881Z,36.67
2023-01-15T14:53:37.519Z,37.75
2023-01-15T15:10:50.978Z,40.35
2023-01-15T15:13:44.814Z,38.80
2023-01-15T15:16:43.779Z,43.55
2023-01-15T15:28:15.666Z,39.75
2023-01-15T15:30:51.455Z,39.75
2023-01-15T15:42:04.332Z,39.70
2023-01-15T15:45:09.063Z,38.05
2023-01-15T15:57:38.607Z,43.75
2023-01-15T16:01:30.322Z,44.40
2023-01-15T16:09:11.099Z,43.45
2023-01-15T16:11:44.363Z,42.72
2023-01-15T16:19:03.333Z,44.50
2023-01-15T16:31:01.691Z,45.72
2023-01-15T16:38:28.227Z,47.38
2023-01-15T16:46:25.796Z,41.95
2023-01-15T16:53:39.612Z,42.83
2023-01-15T17:01:38.055Z,43.45
2023-01-15T17:04:46.940Z,42.00
2023-01-15T17:08:52.784Z,44.45
2023-01-15T17:20:36.476Z,47.08
2023-01-15T17:27:41.921Z,39.03
2023-01-15T17:30:18.799Z,38.47
2023-01-15T17:33:00.253Z,37.53
2023-01-15T17:45:03.213Z,34.97
2023-01-15T17:47:36.354Z,36.33
2023-01-15T17:55:55.212Z,36.15
2023-01-15T17:58:49.216Z,34.90
2023-01-15T18:01:49.899Z,36.50
2023-01-15T18:04:51.307Z,38.60
2023-01-15T18:07:29.284Z,38.63
2023-01-15T18:15:07.562Z,55.55
2023-01-15T18:17:42.017Z,89.13
2023-01-15T18:29:15.728Z,40.75
2023-01-15T18:40:55.723Z,39.95
2023-01-15T18:43:54.418Z,36.75
2023-01-15T18:46:44.025Z,36.40
2023-01-15T18:49:13.676Z,38.95
2023-01-15T18:51:44.473Z,35.80
2023-01-15T18:54:37.961Z,42.28
2023-01-15T18:57:05.930Z,63.33
2023-01-15T19:08:46.842Z,38.05
2023-01-15T19:25:06.509Z,34.08
2023-01-15T19:32:05.505Z,34.88
2023-01-15T19:34:38.157Z,32.25
2023-01-15T19:37:11.347Z,33.97
2023-01-15T19:49:07.089Z,33.15
2023-01-15T19:52:24.397Z,32.33
2023-01-15T19:57:27.909Z,33.87
2023-01-15T19:59:56.043Z,30.85
2023-01-15T20:11:55.475Z,28.05
2023-01-15T20:23:36.779Z,25.15
2023-01-15T20:26:07.768Z,29.23
2023-01-15T20:28:37.553Z,37.97
2023-01-15T20:40:11.636Z,31.45
2023-01-15T20:51:48.549Z,31.15
2023-01-15T20:54:16.335Z,32.00
2023-01-15T20:56:47.716Z,30.92
2023-01-15T20:59:15.646Z,28.25
2023-01-15T21:01:45.830Z,30.30
2023-01-15T21:07:59.105Z,31.98
2023-01-15T21:15:28.123Z,31.42
2023-01-15T21:18:00.199Z,31.90
2023-01-15T21:20:30.672Z,34.95
2023-01-15T21:32:09.306Z,35.40
2023-01-15T21:34:36.892Z,35.83
2023-01-15T21:37:04.726Z,40.65
2023-01-15T21:44:25.517Z,43.55
2023-01-15T21:46:53.081Z,43.38
2023-01-15T21:49:21.745Z,49.30
2023-01-15T22:01:48.268Z,41.60
2023-01-15T22:04:19.296Z,39.72
2023-01-15T22:06:50.178Z,35.55
2023-01-15T22:18:35.592Z,31.70
2023-01-15T22:21:22.420Z,33.88
2023-01-15T22:23:56.187Z,29.65
2023-01-15T22:35:40.988Z,53.15
2023-01-15T22:38:11.709Z,59.13
2023-01-15T22:40:46.023Z,62.58
2023-01-15T22:52:27.534Z,32.08
2023-01-15T23:04:16.366Z,42.28
2023-01-15T23:06:44.643Z,34.35
2023-01-15T23:09:27.096Z,36.70
2023-01-15T23:12:12.713Z,34.20
2023-01-15T23:14:42.895Z,32.33
2023-01-15T23:22:02.606Z,40.28
2023-01-15T23:24:42.637Z,33.58
2023-01-15T23:31:50.500Z,27.77
2023-01-15T23:43:45.807Z,22.08
2023-01-15T23:55:22.480Z,58.88
